sensor_id;sensor_type;location;lat;lon;timestamp;P1;durP1;ratioP1;P2;durP2;ratioP2
4642;SDS011;2334;48.710;9.622;2022-09-03T00:02:27;1.37;;;1.27;;
4642;SDS011;2334;48.710;9.622;2022-09-03T00:05:03;4.83;;;1.10;;
4642;SDS011;2334;48.710;9.622;2022-09-03T00:07:35;1.10;;;1.10;;
4642;SDS011;2334;48.710;9.622;2022-09-03T00:10:11;1.33;;;1.30;;
4642;SDS011;2334;48.710;9.622;2022-09-03T00:12:42;2.50;;;1.43;;
4642;SDS011;2334;48.710;9.622;2022-09-03T00:15:11;4.27;;;1.80;;
4642;SDS011;2334;48.710;9.622;2022-09-03T00:17:41;1.10;;;1.00;;
4642;SDS011;2334;48.710;9.622;2022-09-03T00:20:14;0.90;;;0.90;;
4642;SDS011;2334;48.710;9.622;2022-09-03T00:22:45;2.10;;;1.10;;
4642;SDS011;2334;48.710;9.622;2022-09-03T00:25:17;2.20;;;1.90;;
4642;SDS011;2334;48.710;9.622;2022-09-03T00:27:49;1.40;;;1.30;;
4642;SDS011;2334;48.710;9.622;2022-09-03T00:30:19;1.43;;;1.20;;
4642;SDS011;2334;48.710;9.622;2022-09-03T00:32:47;5.23;;;1.60;;
4642;SDS011;2334;48.710;9.622;2022-09-03T00:35:22;1.20;;;1.07;;
4642;SDS011;2334;48.710;9.622;2022-09-03T00:37:52;3.07;;;1.40;;
4642;SDS011;2334;48.710;9.622;2022-09-03T00:43:14;1.33;;;1.23;;
4642;SDS011;2334;48.710;9.622;2022-09-03T00:45:52;4.70;;;1.60;;
4642;SDS011;2334;48.710;9.622;2022-09-03T00:48:29;2.60;;;1.30;;
4642;SDS011;2334;48.710;9.622;2022-09-03T00:51:03;2.73;;;1.40;;
4642;SDS011;2334;48.710;9.622;2022-09-03T00:53:40;1.60;;;1.10;;
4642;SDS011;2334;48.710;9.622;2022-09-03T00:56:19;1.90;;;1.80;;
4642;SDS011;2334;48.710;9.622;2022-09-03T00:58:55;1.87;;;1.40;;
4642;SDS011;2334;48.710;9.622;2022-09-03T01:01:33;1.20;;;1.10;;
4642;SDS011;2334;48.710;9.622;2022-09-03T01:04:07;2.57;;;1.10;;
4642;SDS011;2334;48.710;9.622;2022-09-03T01:06:52;1.80;;;1.70;;
4642;SDS011;2334;48.710;9.622;2022-09-03T01:09:30;1.40;;;1.30;;
4642;SDS011;2334;48.710;9.622;2022-09-03T01:12:10;3.37;;;1.13;;
4642;SDS011;2334;48.710;9.622;2022-09-03T01:14:47;2.87;;;1.30;;
4642;SDS011;2334;48.710;9.622;2022-09-03T01:17:27;1.30;;;1.20;;
4642;SDS011;2334;48.710;9.622;2022-09-03T01:20:15;1.27;;;1.17;;
4642;SDS011;2334;48.710;9.622;2022-09-03T01:26:02;1.30;;;1.20;;
4642;SDS011;2334;48.710;9.622;2022-09-03T01:28:51;2.60;;;1.10;;
4642;SDS011;2334;48.710;9.622;2022-09-03T01:31:35;2.53;;;1.30;;
4642;SDS011;2334;48.710;9.622;2022-09-03T01:34:16;2.53;;;1.80;;
4642;SDS011;2334;48.710;9.622;2022-09-03T01:36:54;1.60;;;1.50;;
4642;SDS011;2334;48.710;9.622;2022-09-03T01:39:32;1.13;;;1.03;;
4642;SDS011;2334;48.710;9.622;2022-09-03T01:42:09;3.20;;;1.50;;
4642;SDS011;2334;48.710;9.622;2022-09-03T01:45:01;3.23;;;1.07;;
4642;SDS011;2334;48.710;9.622;2022-09-03T01:47:48;1.20;;;1.00;;
4642;SDS011;2334;48.710;9.622;2022-09-03T01:50:30;2.60;;;1.50;;
4642;SDS011;2334;48.710;9.622;2022-09-03T01:53:06;1.43;;;1.33;;
4642;SDS011;2334;48.710;9.622;2022-09-03T01:55:42;1.30;;;1.10;;
4642;SDS011;2334;48.710;9.622;2022-09-03T01:58:20;1.27;;;1.17;;
4642;SDS011;2334;48.710;9.622;2022-09-03T02:00:56;1.50;;;1.40;;
4642;SDS011;2334;48.710;9.622;2022-09-03T02:03:32;1.30;;;1.20;;
4642;SDS011;2334;48.710;9.622;2022-09-03T02:06:01;2.67;;;1.43;;
4642;SDS011;2334;48.710;9.622;2022-09-03T02:08:31;2.00;;;1.47;;
4642;SDS011;2334;48.710;9.622;2022-09-03T02:10:58;1.87;;;1.20;;
4642;SDS011;2334;48.710;9.622;2022-09-03T02:13:27;1.90;;;1.27;;
4642;SDS011;2334;48.710;9.622;2022-09-03T02:16:00;2.87;;;1.40;;
4642;SDS011;2334;48.710;9.622;2022-09-03T02:18:33;1.83;;;1.37;;
4642;SDS011;2334;48.710;9.622;2022-09-03T02:21:02;1.30;;;1.13;;
4642;SDS011;2334;48.710;9.622;2022-09-03T02:23:30;1.20;;;1.10;;
4642;SDS011;2334;48.710;9.622;2022-09-03T02:25:57;1.30;;;1.20;;
4642;SDS011;2334;48.710;9.622;2022-09-03T02:28:27;1.20;;;1.20;;
4642;SDS011;2334;48.710;9.622;2022-09-03T02:30:55;1.20;;;1.07;;
4642;SDS011;2334;48.710;9.622;2022-09-03T02:33:23;1.37;;;1.10;;
4642;SDS011;2334;48.710;9.622;2022-09-03T02:35:51;2.50;;;1.20;;
4642;SDS011;2334;48.710;9.622;2022-09-03T02:38:20;1.47;;;1.30;;
4642;SDS011;2334;48.710;9.622;2022-09-03T02:40:49;1.47;;;1.37;;
4642;SDS011;2334;48.710;9.622;2022-09-03T02:43:19;2.37;;;1.23;;
4642;SDS011;2334;48.710;9.622;2022-09-03T02:45:53;5.70;;;1.53;;
4642;SDS011;2334;48.710;9.622;2022-09-03T02:48:26;1.67;;;1.17;;
4642;SDS011;2334;48.710;9.622;2022-09-03T02:50:53;1.33;;;1.20;;
4642;SDS011;2334;48.710;9.622;2022-09-03T02:53:20;1.40;;;1.30;;
4642;SDS011;2334;48.710;9.622;2022-09-03T02:55:47;1.43;;;1.33;;
4642;SDS011;2334;48.710;9.622;2022-09-03T02:58:14;8.63;;;1.40;;
4642;SDS011;2334;48.710;9.622;2022-09-03T03:00:41;3.07;;;1.07;;
4642;SDS011;2334;48.710;9.622;2022-09-03T03:03:09;2.00;;;1.10;;
4642;SDS011;2334;48.710;9.622;2022-09-03T03:05:40;3.47;;;1.33;;
4642;SDS011;2334;48.710;9.622;2022-09-03T03:08:10;2.93;;;1.53;;
4642;SDS011;2334;48.710;9.622;2022-09-03T03:10:39;1.30;;;1.20;;
4642;SDS011;2334;48.710;9.622;2022-09-03T03:13:06;1.30;;;1.20;;
4642;SDS011;2334;48.710;9.622;2022-09-03T03:15:33;1.60;;;1.30;;
4642;SDS011;2334;48.710;9.622;2022-09-03T03:17:59;1.40;;;1.30;;
4642;SDS011;2334;48.710;9.622;2022-09-03T03:20:26;1.90;;;1.30;;
4642;SDS011;2334;48.710;9.622;2022-09-03T03:22:55;2.30;;;1.67;;
4642;SDS011;2334;48.710;9.622;2022-09-03T03:25:22;2.20;;;1.33;;
4642;SDS011;2334;48.710;9.622;2022-09-03T03:27:49;1.40;;;1.30;;
4642;SDS011;2334;48.710;9.622;2022-09-03T03:30:16;1.30;;;1.00;;
4642;SDS011;2334;48.710;9.622;2022-09-03T03:32:44;1.60;;;1.10;;
4642;SDS011;2334;48.710;9.622;2022-09-03T03:35:11;3.40;;;1.80;;
4642;SDS011;2334;48.710;9.622;2022-09-03T03:37:38;1.77;;;1.30;;
4642;SDS011;2334;48.710;9.622;2022-09-03T03:40:08;5.00;;;1.60;;
4642;SDS011;2334;48.710;9.622;2022-09-03T03:42:35;1.33;;;1.23;;
4642;SDS011;2334;48.710;9.622;2022-09-03T03:45:03;1.43;;;1.20;;
4642;SDS011;2334;48.710;9.622;2022-09-03T03:47:31;1.50;;;1.40;;
4642;SDS011;2334;48.710;9.622;2022-09-03T03:49:58;1.20;;;1.00;;
4642;SDS011;2334;48.710;9.622;2022-09-03T03:52:26;1.30;;;1.17;;
4642;SDS011;2334;48.710;9.622;2022-09-03T03:54:53;3.33;;;1.60;;
4642;SDS011;2334;48.710;9.622;2022-09-03T03:57:22;2.13;;;1.50;;
4642;SDS011;2334;48.710;9.622;2022-09-03T03:59:49;1.37;;;1.27;;
4642;SDS011;2334;48.710;9.622;2022-09-03T04:02:16;2.90;;;1.10;;
4642;SDS011;2334;48.710;9.622;2022-09-03T04:04:43;2.50;;;1.90;;
4642;SDS011;2334;48.710;9.622;2022-09-03T04:07:10;4.80;;;1.47;;
4642;SDS011;2334;48.710;9.622;2022-09-03T04:09:37;2.37;;;1.77;;
4642;SDS011;2334;48.710;9.622;2022-09-03T04:12:04;5.90;;;2.03;;
4642;SDS011;2334;48.710;9.622;2022-09-03T04:14:34;4.70;;;1.57;;
4642;SDS011;2334;48.710;9.622;2022-09-03T04:17:01;1.50;;;1.40;;
4642;SDS011;2334;48.710;9.622;2022-09-03T04:19:28;1.73;;;1.63;;
4642;SDS011;2334;48.710;9.622;2022-09-03T04:21:55;1.33;;;1.23;;
4642;SDS011;2334;48.710;9.622;2022-09-03T04:24:22;1.73;;;1.57;;
4642;SDS011;2334;48.710;9.622;2022-09-03T04:26:49;2.13;;;1.47;;
4642;SDS011;2334;48.710;9.622;2022-09-03T04:29:18;1.30;;;1.20;;
4642;SDS011;2334;48.710;9.622;2022-09-03T04:31:47;1.93;;;1.60;;
4642;SDS011;2334;48.710;9.622;2022-09-03T04:34:32;1.63;;;1.53;;
4642;SDS011;2334;48.710;9.622;2022-09-03T04:36:59;3.03;;;1.80;;
4642;SDS011;2334;48.710;9.622;2022-09-03T04:39:25;1.10;;;1.10;;
4642;SDS011;2334;48.710;9.622;2022-09-03T04:41:52;1.80;;;1.70;;
4642;SDS011;2334;48.710;9.622;2022-09-03T04:44:19;2.90;;;1.37;;
4642;SDS011;2334;48.710;9.622;2022-09-03T04:46:48;2.03;;;1.87;;
4642;SDS011;2334;48.710;9.622;2022-09-03T04:49:14;2.30;;;1.40;;
4642;SDS011;2334;48.710;9.622;2022-09-03T04:51:41;2.53;;;1.93;;
4642;SDS011;2334;48.710;9.622;2022-09-03T04:54:09;1.50;;;1.40;;
4642;SDS011;2334;48.710;9.622;2022-09-03T04:56:37;1.50;;;1.40;;
4642;SDS011;2334;48.710;9.622;2022-09-03T04:59:05;2.70;;;1.67;;
4642;SDS011;2334;48.710;9.622;2022-09-03T05:01:34;2.70;;;1.60;;
4642;SDS011;2334;48.710;9.622;2022-09-03T05:04:04;1.97;;;1.87;;
4642;SDS011;2334;48.710;9.622;2022-09-03T05:06:32;1.83;;;1.73;;
4642;SDS011;2334;48.710;9.622;2022-09-03T05:09:00;1.77;;;1.60;;
4642;SDS011;2334;48.710;9.622;2022-09-03T05:11:28;1.90;;;1.80;;
4642;SDS011;2334;48.710;9.622;2022-09-03T05:13:56;4.43;;;1.90;;
4642;SDS011;2334;48.710;9.622;2022-09-03T05:16:25;2.70;;;2.00;;
4642;SDS011;2334;48.710;9.622;2022-09-03T05:18:54;2.00;;;1.57;;
4642;SDS011;2334;48.710;9.622;2022-09-03T05:21:24;1.97;;;1.60;;
4642;SDS011;2334;48.710;9.622;2022-09-03T05:23:52;3.80;;;1.90;;
4642;SDS011;2334;48.710;9.622;2022-09-03T05:26:20;3.03;;;1.60;;
4642;SDS011;2334;48.710;9.622;2022-09-03T05:28:51;4.17;;;2.00;;
4642;SDS011;2334;48.710;9.622;2022-09-03T05:31:19;3.80;;;1.90;;
4642;SDS011;2334;48.710;9.622;2022-09-03T05:33:48;8.57;;;2.50;;
4642;SDS011;2334;48.710;9.622;2022-09-03T05:36:17;2.00;;;1.90;;
4642;SDS011;2334;48.710;9.622;2022-09-03T05:38:47;2.50;;;2.30;;
4642;SDS011;2334;48.710;9.622;2022-09-03T05:41:15;1.60;;;1.50;;
4642;SDS011;2334;48.710;9.622;2022-09-03T05:43:43;2.73;;;1.90;;
4642;SDS011;2334;48.710;9.622;2022-09-03T05:46:10;2.00;;;1.77;;
4642;SDS011;2334;48.710;9.622;2022-09-03T05:48:40;2.90;;;1.90;;
4642;SDS011;2334;48.710;9.622;2022-09-03T05:51:08;1.60;;;1.50;;
4642;SDS011;2334;48.710;9.622;2022-09-03T05:53:37;3.13;;;1.67;;
4642;SDS011;2334;48.710;9.622;2022-09-03T05:56:07;2.73;;;2.07;;
4642;SDS011;2334;48.710;9.622;2022-09-03T05:58:36;2.10;;;1.80;;
4642;SDS011;2334;48.710;9.622;2022-09-03T06:01:09;5.90;;;2.20;;
4642;SDS011;2334;48.710;9.622;2022-09-03T06:03:37;4.60;;;2.13;;
4642;SDS011;2334;48.710;9.622;2022-09-03T06:06:04;2.20;;;1.97;;
4642;SDS011;2334;48.710;9.622;2022-09-03T06:08:31;2.17;;;1.97;;
4642;SDS011;2334;48.710;9.622;2022-09-03T06:10:58;3.47;;;2.60;;
4642;SDS011;2334;48.710;9.622;2022-09-03T06:13:26;1.73;;;1.63;;
4642;SDS011;2334;48.710;9.622;2022-09-03T06:15:55;5.40;;;2.13;;
4642;SDS011;2334;48.710;9.622;2022-09-03T06:18:23;2.33;;;2.03;;
4642;SDS011;2334;48.710;9.622;2022-09-03T06:20:52;4.20;;;2.10;;
4642;SDS011;2334;48.710;9.622;2022-09-03T06:23:20;9.60;;;2.50;;
4642;SDS011;2334;48.710;9.622;2022-09-03T06:25:47;3.40;;;2.30;;
4642;SDS011;2334;48.710;9.622;2022-09-03T06:28:14;4.40;;;1.90;;
4642;SDS011;2334;48.710;9.622;2022-09-03T06:30:42;4.10;;;2.27;;
4642;SDS011;2334;48.710;9.622;2022-09-03T06:33:09;2.80;;;2.00;;
4642;SDS011;2334;48.710;9.622;2022-09-03T06:35:36;1.53;;;1.53;;
4642;SDS011;2334;48.710;9.622;2022-09-03T06:38:03;2.67;;;1.93;;
4642;SDS011;2334;48.710;9.622;2022-09-03T06:40:30;2.40;;;1.90;;
4642;SDS011;2334;48.710;9.622;2022-09-03T06:42:57;2.57;;;1.83;;
4642;SDS011;2334;48.710;9.622;2022-09-03T06:45:27;2.20;;;2.10;;
4642;SDS011;2334;48.710;9.622;2022-09-03T06:47:55;3.53;;;2.53;;
4642;SDS011;2334;48.710;9.622;2022-09-03T06:50:22;4.33;;;2.40;;
4642;SDS011;2334;48.710;9.622;2022-09-03T06:52:50;3.37;;;2.57;;
4642;SDS011;2334;48.710;9.622;2022-09-03T06:55:19;3.27;;;2.10;;
4642;SDS011;2334;48.710;9.622;2022-09-03T06:57:46;3.20;;;2.90;;
4642;SDS011;2334;48.710;9.622;2022-09-03T07:00:13;2.23;;;2.13;;
4642;SDS011;2334;48.710;9.622;2022-09-03T07:02:41;5.67;;;2.07;;
4642;SDS011;2334;48.710;9.622;2022-09-03T07:05:10;6.27;;;2.40;;
4642;SDS011;2334;48.710;9.622;2022-09-03T07:07:37;2.03;;;1.93;;
4642;SDS011;2334;48.710;9.622;2022-09-03T07:10:05;2.70;;;2.13;;
4642;SDS011;2334;48.710;9.622;2022-09-03T07:12:34;3.47;;;2.47;;
4642;SDS011;2334;48.710;9.622;2022-09-03T07:15:01;2.43;;;2.17;;
4642;SDS011;2334;48.710;9.622;2022-09-03T07:17:28;6.63;;;2.50;;
4642;SDS011;2334;48.710;9.622;2022-09-03T07:19:55;5.97;;;3.00;;
4642;SDS011;2334;48.710;9.622;2022-09-03T07:22:24;4.10;;;2.97;;
4642;SDS011;2334;48.710;9.622;2022-09-03T07:24:51;2.50;;;2.20;;
4642;SDS011;2334;48.710;9.622;2022-09-03T07:27:18;3.10;;;2.47;;
4642;SDS011;2334;48.710;9.622;2022-09-03T07:29:44;2.03;;;1.93;;
4642;SDS011;2334;48.710;9.622;2022-09-03T07:32:11;4.17;;;3.77;;
4642;SDS011;2334;48.710;9.622;2022-09-03T07:34:39;7.87;;;3.07;;
4642;SDS011;2334;48.710;9.622;2022-09-03T07:37:06;2.93;;;2.30;;
4642;SDS011;2334;48.710;9.622;2022-09-03T07:39:34;3.57;;;2.50;;
4642;SDS011;2334;48.710;9.622;2022-09-03T07:42:01;2.70;;;2.47;;
4642;SDS011;2334;48.710;9.622;2022-09-03T07:44:28;2.53;;;2.10;;
4642;SDS011;2334;48.710;9.622;2022-09-03T07:46:55;4.40;;;2.73;;
4642;SDS011;2334;48.710;9.622;2022-09-03T07:49:22;3.83;;;2.03;;
4642;SDS011;2334;48.710;9.622;2022-09-03T07:51:49;4.00;;;3.63;;
4642;SDS011;2334;48.710;9.622;2022-09-03T07:54:18;4.80;;;2.90;;
4642;SDS011;2334;48.710;9.622;2022-09-03T07:56:47;3.27;;;2.53;;
4642;SDS011;2334;48.710;9.622;2022-09-03T07:59:14;2.50;;;2.30;;
4642;SDS011;2334;48.710;9.622;2022-09-03T08:01:41;2.90;;;2.70;;
4642;SDS011;2334;48.710;9.622;2022-09-03T08:04:08;3.83;;;2.03;;
4642;SDS011;2334;48.710;9.622;2022-09-03T08:06:36;6.93;;;2.47;;
4642;SDS011;2334;48.710;9.622;2022-09-03T08:09:05;4.10;;;2.87;;
4642;SDS011;2334;48.710;9.622;2022-09-03T08:11:35;7.63;;;2.57;;
4642;SDS011;2334;48.710;9.622;2022-09-03T08:14:06;2.03;;;1.93;;
4642;SDS011;2334;48.710;9.622;2022-09-03T08:16:35;3.77;;;2.90;;
4642;SDS011;2334;48.710;9.622;2022-09-03T08:19:03;5.63;;;2.97;;
4642;SDS011;2334;48.710;9.622;2022-09-03T08:21:31;3.67;;;2.23;;
4642;SDS011;2334;48.710;9.622;2022-09-03T08:23:58;2.30;;;2.20;;
4642;SDS011;2334;48.710;9.622;2022-09-03T08:26:27;6.73;;;2.90;;
4642;SDS011;2334;48.710;9.622;2022-09-03T08:28:56;5.43;;;2.60;;
4642;SDS011;2334;48.710;9.622;2022-09-03T08:31:25;2.73;;;2.00;;
4642;SDS011;2334;48.710;9.622;2022-09-03T08:33:53;3.60;;;2.17;;
4642;SDS011;2334;48.710;9.622;2022-09-03T08:36:23;2.87;;;2.67;;
4642;SDS011;2334;48.710;9.622;2022-09-03T08:38:51;2.23;;;2.00;;
4642;SDS011;2334;48.710;9.622;2022-09-03T08:41:21;3.20;;;2.13;;
4642;SDS011;2334;48.710;9.622;2022-09-03T08:43:58;4.83;;;2.77;;
4642;SDS011;2334;48.710;9.622;2022-09-03T08:46:43;3.73;;;2.00;;
4642;SDS011;2334;48.710;9.622;2022-09-03T08:49:17;4.30;;;2.53;;
4642;SDS011;2334;48.710;9.622;2022-09-03T08:51:49;3.37;;;2.57;;
4642;SDS011;2334;48.710;9.622;2022-09-03T08:54:20;2.07;;;1.97;;
4642;SDS011;2334;48.710;9.622;2022-09-03T08:56:51;4.77;;;2.33;;
4642;SDS011;2334;48.710;9.622;2022-09-03T08:59:20;2.10;;;2.00;;
4642;SDS011;2334;48.710;9.622;2022-09-03T09:01:51;6.70;;;1.90;;
4642;SDS011;2334;48.710;9.622;2022-09-03T09:04:25;3.20;;;2.33;;
4642;SDS011;2334;48.710;9.622;2022-09-03T09:07:02;2.60;;;1.83;;
4642;SDS011;2334;48.710;9.622;2022-09-03T09:09:38;2.10;;;1.93;;
4642;SDS011;2334;48.710;9.622;2022-09-03T09:12:14;2.00;;;1.90;;
4642;SDS011;2334;48.710;9.622;2022-09-03T09:14:49;4.97;;;3.27;;
4642;SDS011;2334;48.710;9.622;2022-09-03T09:17:34;4.83;;;1.97;;
4642;SDS011;2334;48.710;9.622;2022-09-03T09:20:23;3.57;;;1.90;;
4642;SDS011;2334;48.710;9.622;2022-09-03T09:22:54;4.47;;;2.00;;
4642;SDS011;2334;48.710;9.622;2022-09-03T09:25:26;1.93;;;1.83;;
4642;SDS011;2334;48.710;9.622;2022-09-03T09:27:56;3.93;;;2.00;;
4642;SDS011;2334;48.710;9.622;2022-09-03T09:30:25;5.43;;;1.83;;
4642;SDS011;2334;48.710;9.622;2022-09-03T09:32:55;2.30;;;2.10;;
4642;SDS011;2334;48.710;9.622;2022-09-03T09:35:24;2.30;;;2.10;;
4642;SDS011;2334;48.710;9.622;2022-09-03T09:37:52;5.33;;;2.00;;
4642;SDS011;2334;48.710;9.622;2022-09-03T09:40:28;2.87;;;1.73;;
4642;SDS011;2334;48.710;9.622;2022-09-03T09:43:07;1.77;;;1.63;;
4642;SDS011;2334;48.710;9.622;2022-09-03T09:45:37;1.83;;;1.70;;
4642;SDS011;2334;48.710;9.622;2022-09-03T09:48:09;6.30;;;1.63;;
4642;SDS011;2334;48.710;9.622;2022-09-03T09:50:42;1.60;;;1.50;;
4642;SDS011;2334;48.710;9.622;2022-09-03T09:53:10;1.60;;;1.50;;
4642;SDS011;2334;48.710;9.622;2022-09-03T09:55:51;3.17;;;2.03;;
4642;SDS011;2334;48.710;9.622;2022-09-03T09:58:20;1.55;;;1.45;;
4642;SDS011;2334;48.710;9.622;2022-09-03T10:00:55;3.30;;;1.57;;
4642;SDS011;2334;48.710;9.622;2022-09-03T10:03:25;1.80;;;1.67;;
4642;SDS011;2334;48.710;9.622;2022-09-03T10:05:57;2.20;;;1.73;;
4642;SDS011;2334;48.710;9.622;2022-09-03T10:08:50;4.83;;;1.97;;
4642;SDS011;2334;48.710;9.622;2022-09-03T10:11:18;1.80;;;1.50;;
4642;SDS011;2334;48.710;9.622;2022-09-03T10:13:49;1.93;;;1.83;;
4642;SDS011;2334;48.710;9.622;2022-09-03T10:16:20;1.73;;;1.63;;
4642;SDS011;2334;48.710;9.622;2022-09-03T10:18:53;1.30;;;1.20;;
4642;SDS011;2334;48.710;9.622;2022-09-03T10:21:29;3.73;;;1.53;;
4642;SDS011;2334;48.710;9.622;2022-09-03T10:24:03;1.47;;;1.37;;
4642;SDS011;2334;48.710;9.622;2022-09-03T10:26:41;2.63;;;2.50;;
4642;SDS011;2334;48.710;9.622;2022-09-03T10:29:09;1.63;;;1.37;;
4642;SDS011;2334;48.710;9.622;2022-09-03T10:31:49;1.77;;;1.57;;
4642;SDS011;2334;48.710;9.622;2022-09-03T10:34:27;2.80;;;1.77;;
4642;SDS011;2334;48.710;9.622;2022-09-03T10:37:01;1.40;;;1.40;;
4642;SDS011;2334;48.710;9.622;2022-09-03T10:39:40;1.47;;;1.37;;
4642;SDS011;2334;48.710;9.622;2022-09-03T10:42:19;2.07;;;1.40;;
4642;SDS011;2334;48.710;9.622;2022-09-03T10:44:58;1.87;;;1.77;;
4642;SDS011;2334;48.710;9.622;2022-09-03T10:47:34;1.33;;;1.23;;
4642;SDS011;2334;48.710;9.622;2022-09-03T10:50:26;2.63;;;1.53;;
4642;SDS011;2334;48.710;9.622;2022-09-03T10:53:00;1.20;;;1.10;;
4642;SDS011;2334;48.710;9.622;2022-09-03T10:55:39;1.80;;;1.70;;
4642;SDS011;2334;48.710;9.622;2022-09-03T10:58:30;1.63;;;1.53;;
4642;SDS011;2334;48.710;9.622;2022-09-03T11:01:11;3.07;;;1.50;;
4642;SDS011;2334;48.710;9.622;2022-09-03T11:03:47;2.10;;;1.50;;
4642;SDS011;2334;48.710;9.622;2022-09-03T11:06:21;2.03;;;1.93;;
4642;SDS011;2334;48.710;9.622;2022-09-03T11:08:52;3.57;;;1.50;;
4642;SDS011;2334;48.710;9.622;2022-09-03T11:11:26;2.40;;;2.20;;
4642;SDS011;2334;48.710;9.622;2022-09-03T11:13:58;1.60;;;1.50;;
4642;SDS011;2334;48.710;9.622;2022-09-03T11:16:32;1.83;;;1.73;;
4642;SDS011;2334;48.710;9.622;2022-09-03T11:19:03;3.57;;;1.63;;
4642;SDS011;2334;48.710;9.622;2022-09-03T11:21:33;2.53;;;1.73;;
4642;SDS011;2334;48.710;9.622;2022-09-03T11:24:04;1.53;;;1.43;;
4642;SDS011;2334;48.710;9.622;2022-09-03T11:26:37;1.40;;;1.30;;
4642;SDS011;2334;48.710;9.622;2022-09-03T11:29:10;2.70;;;2.00;;
4642;SDS011;2334;48.710;9.622;2022-09-03T11:31:45;1.67;;;1.60;;
4642;SDS011;2334;48.710;9.622;2022-09-03T11:34:26;1.70;;;1.60;;
4642;SDS011;2334;48.710;9.622;2022-09-03T11:37:14;1.97;;;1.87;;
4642;SDS011;2334;48.710;9.622;2022-09-03T11:39:43;1.73;;;1.40;;
4642;SDS011;2334;48.710;9.622;2022-09-03T11:42:22;2.07;;;1.97;;
4642;SDS011;2334;48.710;9.622;2022-09-03T11:45:11;3.60;;;1.43;;
4642;SDS011;2334;48.710;9.622;2022-09-03T11:47:46;2.50;;;1.80;;
4642;SDS011;2334;48.710;9.622;2022-09-03T11:50:19;2.57;;;1.60;;
4642;SDS011;2334;48.710;9.622;2022-09-03T11:52:49;1.70;;;1.60;;
4642;SDS011;2334;48.710;9.622;2022-09-03T11:55:24;3.07;;;1.93;;
4642;SDS011;2334;48.710;9.622;2022-09-03T11:57:54;3.03;;;1.70;;
4642;SDS011;2334;48.710;9.622;2022-09-03T12:00:22;2.07;;;1.97;;
4642;SDS011;2334;48.710;9.622;2022-09-03T12:02:51;1.70;;;1.60;;
4642;SDS011;2334;48.710;9.622;2022-09-03T12:05:24;1.80;;;1.70;;
4642;SDS011;2334;48.710;9.622;2022-09-03T12:10:56;2.57;;;2.37;;
4642;SDS011;2334;48.710;9.622;2022-09-03T12:13:43;1.70;;;1.60;;
4642;SDS011;2334;48.710;9.622;2022-09-03T12:16:29;4.03;;;2.57;;
4642;SDS011;2334;48.710;9.622;2022-09-03T12:19:09;2.57;;;2.20;;
4642;SDS011;2334;48.710;9.622;2022-09-03T12:21:47;3.13;;;2.27;;
4642;SDS011;2334;48.710;9.622;2022-09-03T12:24:15;3.67;;;2.20;;
4642;SDS011;2334;48.710;9.622;2022-09-03T12:26:44;1.77;;;1.67;;
4642;SDS011;2334;48.710;9.622;2022-09-03T12:29:21;2.87;;;2.43;;
4642;SDS011;2334;48.710;9.622;2022-09-03T12:31:50;2.43;;;2.23;;
4642;SDS011;2334;48.710;9.622;2022-09-03T12:34:20;3.70;;;2.00;;
4642;SDS011;2334;48.710;9.622;2022-09-03T12:36:48;4.30;;;2.37;;
4642;SDS011;2334;48.710;9.622;2022-09-03T12:39:19;3.50;;;2.50;;
4642;SDS011;2334;48.710;9.622;2022-09-03T12:41:52;3.30;;;2.20;;
4642;SDS011;2334;48.710;9.622;2022-09-03T12:44:31;3.33;;;1.87;;
4642;SDS011;2334;48.710;9.622;2022-09-03T12:47:05;1.23;;;1.17;;
4642;SDS011;2334;48.710;9.622;2022-09-03T12:49:36;4.20;;;1.20;;
4642;SDS011;2334;48.710;9.622;2022-09-03T12:52:07;2.17;;;1.50;;
4642;SDS011;2334;48.710;9.622;2022-09-03T12:54:45;2.30;;;1.23;;
4642;SDS011;2334;48.710;9.622;2022-09-03T12:57:18;1.10;;;1.00;;
4642;SDS011;2334;48.710;9.622;2022-09-03T12:59:47;2.27;;;1.27;;
4642;SDS011;2334;48.710;9.622;2022-09-03T13:02:19;1.37;;;1.10;;
4642;SDS011;2334;48.710;9.622;2022-09-03T13:04:50;0.90;;;0.90;;
4642;SDS011;2334;48.710;9.622;2022-09-03T13:07:22;2.97;;;1.10;;
4642;SDS011;2334;48.710;9.622;2022-09-03T13:09:59;3.00;;;1.07;;
4642;SDS011;2334;48.710;9.622;2022-09-03T13:12:29;0.80;;;0.80;;
4642;SDS011;2334;48.710;9.622;2022-09-03T13:15:04;1.00;;;1.00;;
4642;SDS011;2334;48.710;9.622;2022-09-03T13:20:47;0.90;;;0.90;;
4642;SDS011;2334;48.710;9.622;2022-09-03T13:23:34;1.00;;;0.90;;
4642;SDS011;2334;48.710;9.622;2022-09-03T13:26:17;1.53;;;0.80;;
4642;SDS011;2334;48.710;9.622;2022-09-03T13:28:55;4.43;;;1.00;;
4642;SDS011;2334;48.710;9.622;2022-09-03T13:31:44;1.23;;;0.77;;
4642;SDS011;2334;48.710;9.622;2022-09-03T13:34:17;1.27;;;1.27;;
4642;SDS011;2334;48.710;9.622;2022-09-03T13:36:48;4.20;;;1.20;;
4642;SDS011;2334;48.710;9.622;2022-09-03T13:39:24;1.10;;;1.00;;
4642;SDS011;2334;48.710;9.622;2022-09-03T13:41:56;1.10;;;1.00;;
4642;SDS011;2334;48.710;9.622;2022-09-03T13:44:34;1.10;;;1.00;;
4642;SDS011;2334;48.710;9.622;2022-09-03T13:47:08;3.00;;;2.30;;
4642;SDS011;2334;48.710;9.622;2022-09-03T13:49:42;2.27;;;1.10;;
4642;SDS011;2334;48.710;9.622;2022-09-03T13:52:35;1.13;;;1.00;;
4642;SDS011;2334;48.710;9.622;2022-09-03T13:55:07;1.13;;;1.00;;
4642;SDS011;2334;48.710;9.622;2022-09-03T13:57:39;1.73;;;1.17;;
4642;SDS011;2334;48.710;9.622;2022-09-03T14:00:21;4.33;;;1.37;;
4642;SDS011;2334;48.710;9.622;2022-09-03T14:02:50;1.97;;;0.73;;
4642;SDS011;2334;48.710;9.622;2022-09-03T14:05:24;1.30;;;0.90;;
4642;SDS011;2334;48.710;9.622;2022-09-03T14:08:03;0.60;;;0.60;;
4642;SDS011;2334;48.710;9.622;2022-09-03T14:10:43;2.40;;;1.07;;
4642;SDS011;2334;48.710;9.622;2022-09-03T14:13:21;0.93;;;0.90;;
4642;SDS011;2334;48.710;9.622;2022-09-03T14:15:57;1.13;;;1.03;;
4642;SDS011;2334;48.710;9.622;2022-09-03T14:18:33;3.23;;;1.10;;
4642;SDS011;2334;48.710;9.622;2022-09-03T14:21:07;0.97;;;0.90;;
4642;SDS011;2334;48.710;9.622;2022-09-03T14:23:39;1.07;;;0.70;;
4642;SDS011;2334;48.710;9.622;2022-09-03T14:26:14;0.80;;;0.80;;
4642;SDS011;2334;48.710;9.622;2022-09-03T14:28:45;1.80;;;0.77;;
4642;SDS011;2334;48.710;9.622;2022-09-03T14:31:16;1.30;;;0.80;;
4642;SDS011;2334;48.710;9.622;2022-09-03T14:33:50;0.80;;;0.80;;
4642;SDS011;2334;48.710;9.622;2022-09-03T14:36:25;0.90;;;0.90;;
4642;SDS011;2334;48.710;9.622;2022-09-03T14:45:12;2.30;;;0.80;;
4642;SDS011;2334;48.710;9.622;2022-09-03T14:47:48;1.40;;;0.90;;
4642;SDS011;2334;48.710;9.622;2022-09-03T14:50:28;0.70;;;0.70;;
4642;SDS011;2334;48.710;9.622;2022-09-03T14:53:20;0.90;;;0.90;;
4642;SDS011;2334;48.710;9.622;2022-09-03T14:56:12;0.90;;;0.90;;
4642;SDS011;2334;48.710;9.622;2022-09-03T15:01:40;1.33;;;1.17;;
4642;SDS011;2334;48.710;9.622;2022-09-03T15:04:23;0.60;;;0.57;;
4642;SDS011;2334;48.710;9.622;2022-09-03T15:07:20;0.70;;;0.70;;
4642;SDS011;2334;48.710;9.622;2022-09-03T15:09:53;1.77;;;0.80;;
4642;SDS011;2334;48.710;9.622;2022-09-03T15:12:29;0.60;;;0.60;;
4642;SDS011;2334;48.710;9.622;2022-09-03T15:15:04;1.37;;;0.70;;
4642;SDS011;2334;48.710;9.622;2022-09-03T15:20:28;0.90;;;0.90;;
4642;SDS011;2334;48.710;9.622;2022-09-03T15:23:03;0.80;;;0.60;;
4642;SDS011;2334;48.710;9.622;2022-09-03T15:26:03;0.50;;;0.50;;
4642;SDS011;2334;48.710;9.622;2022-09-03T15:28:56;0.63;;;0.63;;
4642;SDS011;2334;48.710;9.622;2022-09-03T15:31:40;3.60;;;0.77;;
4642;SDS011;2334;48.710;9.622;2022-09-03T15:34:18;0.60;;;0.60;;
4642;SDS011;2334;48.710;9.622;2022-09-03T15:37:00;0.70;;;0.70;;
4642;SDS011;2334;48.710;9.622;2022-09-03T15:39:35;0.80;;;0.80;;
4642;SDS011;2334;48.710;9.622;2022-09-03T15:42:09;3.13;;;1.10;;
4642;SDS011;2334;48.710;9.622;2022-09-03T15:44:41;0.50;;;0.50;;
4642;SDS011;2334;48.710;9.622;2022-09-03T15:47:27;2.30;;;0.70;;
4642;SDS011;2334;48.710;9.622;2022-09-03T15:50:03;0.60;;;0.60;;
4642;SDS011;2334;48.710;9.622;2022-09-03T15:52:44;0.73;;;0.70;;
4642;SDS011;2334;48.710;9.622;2022-09-03T15:55:22;0.60;;;0.60;;
4642;SDS011;2334;48.710;9.622;2022-09-03T15:57:57;0.60;;;0.60;;
4642;SDS011;2334;48.710;9.622;2022-09-03T16:00:37;1.13;;;0.80;;
4642;SDS011;2334;48.710;9.622;2022-09-03T16:03:18;0.57;;;0.57;;
4642;SDS011;2334;48.710;9.622;2022-09-03T16:05:59;0.60;;;0.60;;
4642;SDS011;2334;48.710;9.622;2022-09-03T16:08:33;1.50;;;0.73;;
4642;SDS011;2334;48.710;9.622;2022-09-03T16:11:07;0.80;;;0.60;;
4642;SDS011;2334;48.710;9.622;2022-09-03T16:13:48;0.70;;;0.70;;